KHWO/HWO METAR and TAF weather

Enter ICAO airport designator
Station Type Date Time Source
KHWO METAR 2022/01/23 11:53 UTC NOAA

KHWO 231153Z 32011KT 10SM OVC007 14/13 A3008 RMK AO2 SLP184 60002 70004 T01440133 10172 20144 53008


Station Type Date Time Source
KHWO Decoded METAR 2022/01/23 11:53 UTC NOAA

HOLLYWOOD NORTH PERRY AIRPORT , FL, United States (KHWO) 26-00N 080-14W 2M
Jan 23, 2022 - 06:53 AM EST / 2022.01.23 1153 UTC
Wind: from the NW (320 degrees) at 13 MPH (11 KT):0
Visibility: 10 mile(s):0
Sky conditions: overcast
Temperature: 57.9 F (14.4 C)
Dew Point: 55.9 F (13.3 C)
Relative Humidity: 93%
Pressure (altimeter): 30.08 in. Hg (1018 hPa)
Pressure tendency: 0.02 inches (0.8 hPa) higher than three hours ago
ob: KHWO 231153Z 32011KT 10SM OVC007 14/13 A3008 RMK AO2 SLP184 60002 70004 T01440133 10172 20144 53008
cycle: 12

Station Type Date Time Source
KHWO TAF 2020/02/03 18:20 UTC NOAA

TAF KHWO 031720Z 0318/0418 12005KT P6SM SKC
FM040000 VRB03KT P6SM SKC
FM041500 14010KT P6SM FEW030

Example: see airport list